Accueil
METAR-TAF:

METAR-TAF

Aéroports :

Nice, France

Aéroport de Nice-Côte d'Azur

latitude: 43-39N, longitude: 007-12E, altitude: 4 m

Observation

Le bulletin a été fait il y a 10 minutes, à 08:00 UTC
Vent 9 kt de nord/nord-ouest
Température 16°C
Humidité 21%
Pression 1015 hPa
Visibilité 10 km ou plus
pas de nuages en-dessous de 1500 mètres et pas de cumulonimbus.

METAR: LFMN 230800Z 33009KT CAVOK 16/M06 Q1015 NOSIG

Heure: 10:10 (08:10 UTC)

Prévision

Le bulletin a été fait il y a 6 heures et 10 minutes, à 02:00 UTC
Prévision valable du 23 à 03 UTC au 24 à 09 UTC
Vent 10 kt de nord/nord-ouest
Visibilité 10 km ou plus
pas de nuages en-dessous de 1500 mètres et pas de cumulonimbus.
Evoluant progressivement
du 23 à 08 UTC au 23 à 10 UTC
Vent 6 kt de sud
Evoluant progressivement
du 23 à 21 UTC au 23 à 24 UTC
Vent 10 kt de nord/nord-ouest

TAF: LFMN 230200Z 2303/2409 33010KT CAVOK BECMG 2308/2310 18006KT BECMG 2321/2324 33010KT

Observations et prévisions météorologiques de plus de 4000 aéroports (messages METAR et TAF).

Les stations disponibles sont représentées par des disques jaunes et rouges sur la carte.

Passer la souris dessus pour voir le nom de la station.

Cliquer dessus pour voir les observations et prévisions météorologiques.

Pour changer de carte: cliquez sur les boutons verts avec une croix noire pour zoomer, sur le bouton vert avec un tiret pour effectuer un zoom arrière, ou sur les flèches vertes pour les cartes adjacentes.


METAR-TAF: